47.8°F
Current conditions from King Hill
Updated every 5 minutes
 
  Monday April 24, 2017

Observations for Westford

Westford

44° 37' 39"N, 73° 02' 29"W, Elevation 850 ft.
Eastern Time

Hourly observations for the last 72 hours

Date Time Temperature (°F) Humi-
dity

(%)
Wind
(mph)
Pressure Rain (in)
Air Dew 6 Hour 1 Hr 3 Hr 6 Hr Day
Alt
(in)
Sea
Level

(mb)
Max Min
24 13:00 48.2 33.2 56 NW 6 G 9 30.21 1023.2 0.00
24 12:00 45.4 32.7 61 W 2 G 9 30.22 1023.4 0.00
24 11:00 42.7 31.8 65 N 2 G 9 30.21 1023.1 0.00
24 10:00 38.7 30.1 71 NW 0 G 6 30.20 1022.9 0.00
24 09:00 37.5 31.3 78 NW 0 G 6 30.20 1022.8 0.00
24 08:00 35.3 30.7 43.6 35.3 83 NNE 0 G 7 30.17 1021.8 0.00
24 07:00 37.5 34.3 88 NE 0 G 2 30.15 1021.0 0.00
24 06:00 37.4 34.5 89 Calm 30.11 1019.7 0.00
24 05:00 37.8 34.9 89 Calm 30.10 1019.2 0.00
24 04:00 39.7 36.2 87 NNW 0 G 5 30.07 1018.4 0.00
24 03:00 42.2 38.3 86 N 0 G 5 30.06 1017.9 0.00
24 02:00 43.6 37.8 57.0 43.5 80 Calm 30.03 1017.1 0.00
24 01:00 46.7 37.8 71 N 0 G 5 30.03 1016.9 0.00
24 00:00 49.5 34.9 57 NNW 0 G 7 30.02 1016.6 0.00
23 23:00 54.0 27.0 35 WNW 5 G 9 30.01 1016.3 0.00
23 22:00 53.0 29.3 40 WSW 1 G 11 29.98 1015.3 0.00
23 21:00 54.8 36.0 49 WSW 3 G 10 29.96 1014.7 0.00
23 20:00 57.0 37.5 64.6 57.0 48 SW 0 G 8 29.93 1013.7 0.00
23 19:00 61.7 37.1 40 SW 4 G 11 29.92 1013.2 0.00
23 18:00 64.4 37.6 37 SSW 7 G 14 29.91 1013.0 0.00
23 17:00 63.9 36.4 36 SSW 7 G 14 29.91 1012.9 0.00
23 16:00 62.8 35.5 36 S 1 G 12 29.94 1014.0 0.00
23 15:00 61.9 36.7 39 S 1 G 10 29.97 1014.9 0.00
23 14:00 58.9 35.9 59.2 39.8 42 SSW 0 G 9 30.00 1016.0 0.00
23 13:00 55.5 35.6 47 SW 0 G 8 30.03 1016.9 0.00
23 12:00 54.1 38.8 56 W 6 G 9 30.05 1017.5 0.00
23 11:00 50.1 36.3 59 WNW 4 G 8 30.05 1017.8 0.00
23 10:00 47.6 37.9 69 WSW 5 G 8 30.06 1017.8 0.00
23 09:00 45.5 39.7 80 SSE 0 G 6 30.06 1017.8 0.00
23 08:00 39.8 37.4 39.8 31.7 91 Calm 30.05 1017.7 0.00
23 07:00 34.0 33.0 96 Calm 30.04 1017.4 0.00
23 06:00 33.4 32.4 96 Calm 30.02 1016.7 0.00
23 05:00 33.0 31.5 94 Calm 30.01 1016.2 0.00
23 04:00 35.4 33.3 92 Calm 30.00 1016.0 0.00
23 03:00 37.5 35.1 91 Calm 30.01 1016.3 0.00
23 02:00 39.7 36.7 41.5 39.5 89 NNW 1 G 7 30.01 1016.2 0.01 0.00
23 01:00 40.2 37.5 90 NW 0 G 6 30.00 1015.9 0.00
23 00:00 39.7 37.8 93 Calm 29.99 1015.7 0.01
22 23:00 40.1 38.0 92 NW 0 G 6 29.99 1015.6 0.01 0.01 0.01
22 22:00 41.1 37.5 87 NW 0 G 6 29.99 1015.5 0.00
22 21:00 40.3 37.6 90 Calm 29.98 1015.1 0.00
22 20:00 41.5 37.9 46.5 41.4 87 Calm 29.97 1014.9 0.00
22 19:00 42.3 37.8 84 NW 0 G 1 29.95 1014.4 0.00
22 18:00 43.2 38.7 84 NW 1 G 14 29.95 1014.2 0.00
22 17:00 43.7 40.4 88 WNW 1 G 10 29.92 1013.4 0.00
22 16:00 44.4 40.8 87 NW 0 G 7 29.92 1013.1 0.00
22 15:00 46.0 41.4 84 NW 1 G 5 29.90 1012.7 0.00
22 14:00 45.8 40.6 46.3 44.3 82 NNE 0 G 6 29.90 1012.6 0.00
22 13:00 45.4 41.8 87 NW 3 G 8 29.91 1012.8 0.00
22 12:00 45.5 40.3 82 WNW 5 G 9 29.89 1012.4 0.00
22 11:00 45.9 42.5 88 WNW 1 G 5 29.89 1012.2 0.00
22 10:00 45.4 41.8 87 W 4 G 7 29.89 1012.1 0.00
22 09:00 45.1 43.8 95 SSW 2 G 6 29.87 1011.6 0.00
22 08:00 44.3 43.2 44.4 42.5 96 SSW 3 G 6 29.89 1012.1 0.00
22 07:00 42.8 41.7 96 Calm 29.87 1011.5 0.00
22 06:00 42.8 41.7 96 SSW 4 G 6 29.87 1011.5 0.00
22 05:00 42.5 41.4 96 SSW 3 G 6 29.86 1011.3 0.00
22 04:00 42.9 41.8 96 SSW 5 G 8 29.87 1011.7 0.00
22 03:00 42.7 41.6 96 S 3 G 6 29.87 1011.5 0.00
22 02:00 42.7 41.6 46.0 42.7 96 SSW 0 G 5 29.88 1011.7 0.10 0.00
22 01:00 43.1 42.0 96 S 4 G 7 29.87 1011.6 0.00
22 00:00 42.9 41.6 95 S 3 G 9 29.87 1011.6 0.40
21 23:00 43.2 41.9 95 S 0 G 7 29.88 1011.9 0.01 0.10 0.40
21 22:00 43.5 41.9 94 S 2 G 8 29.88 1012.0 0.05 0.39
21 21:00 43.9 41.7 92 S 0 G 7 29.88 1011.8 0.04 0.34
21 20:00 46.0 41.7 47.9 44.7 85 S 4 G 11 29.86 1011.3 0.05 0.30
21 19:00 46.9 42.0 83 S 3 G 12 29.84 1010.6 0.30
21 18:00 47.4 42.5 83 S 6 G 18 29.83 1010.3 0.30
21 17:00 46.2 42.8 88 S 8 G 14 29.84 1010.7 0.05 0.30
21 16:00 45.4 42.9 91 SSE 6 G 12 29.83 1010.4 0.30
21 15:00 45.7 43.8 93 S 5 G 12 29.83 1010.2 0.05 0.30
21 14:00 46.1 43.0 50.5 45.4 89 S 5 G 18 29.83 1010.3 0.05 0.05 0.05 0.25

Data generated by WxSolution Version 1.9.0.6, Build 2017.01.14.


 
 
Current Radar Loop:

Copyright © WestfordWeather.net 2007-2017. All rights reserved.